Terminal Aerodrome Forecast
Issued by NWS

Home | Current Version | Previous Version | Text Only | Print | Product List | Glossary On
Versions: 1 2 3 4 5 6 7 8 9 10 11 12 13 14 15 16 17 18 19 20 21 22 23 24 25 26 27 28 29 30 31 32 33 34 35 36 37 38 39 40 41 42 43 44 45 46
000
FTUS41 KBOX 301734
TAFBAF
TAF
KBAF 301734Z 3018/3118 VRB03KT P6SM BKN045 BKN080
     FM302100 24004KT P6SM SCT070
     FM310300 00000KT P6SM SCT080
     FM311400 20004KT P6SM BKN070=

USA.gov is the U.S. government's official web portal to all federal, state and local government web resources and services.